createdAt,value
2018-04-01T00:00:19.439Z,13.94
2018-04-01T00:02:47.356Z,13.96
2018-04-01T00:05:15.278Z,13.86
2018-04-01T00:07:43.196Z,13.87
2018-04-01T00:10:11.000Z,13.54
2018-04-01T00:12:38.751Z,13.50
2018-04-01T00:15:06.651Z,13.45
2018-04-01T00:17:34.449Z,13.32
2018-04-01T00:20:02.196Z,13.42
2018-04-01T00:22:29.940Z,13.39
2018-04-01T00:24:57.954Z,13.28
2018-04-01T00:27:25.844Z,13.02
2018-04-01T00:29:53.571Z,12.98
2018-04-01T00:32:21.447Z,12.92
2018-04-01T00:34:49.154Z,12.87
2018-04-01T00:37:16.918Z,12.94
2018-04-01T00:39:44.726Z,12.96
2018-04-01T00:42:12.455Z,12.94
2018-04-01T00:44:40.978Z,12.88
2018-04-01T00:47:08.697Z,12.71
2018-04-01T00:49:36.423Z,12.71
2018-04-01T00:52:05.135Z,12.64
2018-04-01T00:54:32.870Z,12.63
2018-04-01T00:57:00.775Z,12.49
2018-04-01T00:59:28.593Z,12.59
2018-04-01T01:01:56.512Z,12.85
2018-04-01T01:04:24.431Z,12.58
2018-04-01T01:06:52.361Z,12.34
2018-04-01T01:09:20.172Z,12.20
2018-04-01T01:11:48.396Z,12.18
2018-04-01T01:14:16.212Z,12.10
2018-04-01T01:16:44.029Z,11.92
2018-04-01T01:19:11.914Z,12.11
2018-04-01T01:21:39.768Z,12.19
2018-04-01T01:24:07.503Z,12.12
2018-04-01T01:26:35.402Z,12.05
2018-04-01T01:29:03.282Z,12.26
2018-04-01T01:31:31.049Z,12.20
2018-04-01T01:33:59.057Z,12.08
2018-04-01T01:36:26.880Z,12.04
2018-04-01T01:38:54.705Z,12.09
2018-04-01T01:41:22.492Z,12.09
2018-04-01T01:43:50.233Z,12.10
2018-04-01T01:46:18.058Z,12.11
2018-04-01T01:48:45.881Z,12.03
2018-04-01T01:51:13.688Z,12.05
2018-04-01T01:53:41.512Z,12.10
2018-04-01T01:56:09.392Z,12.05
2018-04-01T01:58:37.252Z,12.08
2018-04-01T02:01:05.070Z,12.05
2018-04-01T02:03:32.844Z,12.11
2018-04-01T02:06:00.701Z,12.03
2018-04-01T02:08:28.520Z,12.18
2018-04-01T02:10:56.440Z,12.09
2018-04-01T02:13:24.157Z,12.04
2018-04-01T02:15:51.887Z,12.10
2018-04-01T02:18:19.695Z,12.09
2018-04-01T02:20:47.520Z,12.04
2018-04-01T02:23:15.434Z,11.93
2018-04-01T02:25:43.556Z,11.81
2018-04-01T02:28:11.470Z,11.59
2018-04-01T02:30:39.162Z,11.46
2018-04-01T02:33:06.911Z,11.32
2018-04-01T02:35:34.688Z,11.52
2018-04-01T02:38:02.440Z,11.65
2018-04-01T02:40:30.370Z,11.49
2018-04-01T02:42:58.385Z,11.47
2018-04-01T02:45:26.708Z,11.59
2018-04-01T02:47:54.601Z,11.84
2018-04-01T02:50:22.409Z,12.13
2018-04-01T02:52:50.185Z,12.30
2018-04-01T02:55:17.982Z,12.36
2018-04-01T02:57:45.799Z,12.50
2018-04-01T03:00:13.585Z,12.51
2018-04-01T03:02:41.449Z,12.62
2018-04-01T03:05:09.171Z,12.61
2018-04-01T03:07:37.184Z,12.63
2018-04-01T03:10:05.072Z,12.60
2018-04-01T03:12:32.913Z,12.90
2018-04-01T03:15:00.832Z,12.95
2018-04-01T03:17:28.560Z,13.07
2018-04-01T03:19:56.467Z,13.15
2018-04-01T03:22:24.287Z,13.18
2018-04-01T03:24:52.167Z,13.13
2018-04-01T03:27:20.025Z,13.07
2018-04-01T03:29:47.947Z,13.00
2018-04-01T03:32:15.764Z,12.89
2018-04-01T03:34:43.586Z,12.72
2018-04-01T03:37:11.414Z,12.70
2018-04-01T03:39:39.220Z,12.52
2018-04-01T03:42:07.139Z,12.48
2018-04-01T03:44:34.965Z,12.52
2018-04-01T03:47:02.695Z,12.57
2018-04-01T03:49:30.511Z,12.62
2018-04-01T03:51:58.619Z,12.59
2018-04-01T03:54:26.333Z,12.45
2018-04-01T03:56:54.357Z,12.68
2018-04-01T03:59:22.273Z,12.95
2018-04-01T04:01:50.089Z,13.06
2018-04-01T04:04:17.810Z,13.19
2018-04-01T04:06:45.729Z,13.12
2018-04-01T04:09:13.545Z,13.19
2018-04-01T04:11:41.363Z,13.23
2018-04-01T04:14:09.285Z,13.18
2018-04-01T04:16:37.104Z,13.25
2018-04-01T04:19:05.728Z,13.18
2018-04-01T04:21:33.569Z,13.07
2018-04-01T04:24:01.467Z,13.17
2018-04-01T04:26:29.360Z,13.25
2018-04-01T04:28:57.110Z,13.20
2018-04-01T04:31:24.918Z,13.20
2018-04-01T04:33:52.755Z,13.12
2018-04-01T04:36:20.525Z,13.21
2018-04-01T04:38:48.291Z,13.34
2018-04-01T04:41:16.110Z,13.35
2018-04-01T04:43:43.914Z,13.34
2018-04-01T04:46:11.832Z,13.35
2018-04-01T04:48:39.615Z,13.40
2018-04-01T04:51:07.365Z,13.43
2018-04-01T04:53:35.290Z,13.38
2018-04-01T04:56:03.184Z,13.41
2018-04-01T04:58:30.924Z,13.61
2018-04-01T05:00:58.842Z,13.71
2018-04-01T05:03:27.365Z,13.69
2018-04-01T05:05:55.080Z,14.35
2018-04-01T05:08:23.005Z,15.48
2018-04-01T05:10:50.859Z,16.16
2018-04-01T05:13:18.645Z,16.80
2018-04-01T05:15:46.362Z,16.95
2018-04-01T05:18:14.075Z,17.07
2018-04-01T05:20:41.978Z,17.33
2018-04-01T05:23:09.916Z,18.00
2018-04-01T05:25:38.435Z,18.16
2018-04-01T05:28:06.256Z,18.16
2018-04-01T05:30:34.096Z,18.53
2018-04-01T05:33:01.905Z,18.74
2018-04-01T05:35:29.627Z,19.04
2018-04-01T05:37:57.393Z,19.47
2018-04-01T05:40:25.252Z,19.79
2018-04-01T05:42:53.087Z,19.84
2018-04-01T05:45:20.889Z,20.23
2018-04-01T05:47:48.603Z,20.40
2018-04-01T05:50:16.724Z,20.86
2018-04-01T05:52:44.554Z,21.54
2018-04-01T05:55:12.271Z,21.54
2018-04-01T05:57:40.016Z,21.54
2018-04-01T06:00:07.899Z,22.04
2018-04-01T06:02:36.736Z,22.93
2018-04-01T06:05:04.507Z,22.07
2018-04-01T06:07:32.212Z,22.92
2018-04-01T06:10:00.078Z,24.01
2018-04-01T06:12:28.000Z,24.69
2018-04-01T06:14:57.543Z,25.48
2018-04-01T06:17:26.254Z,25.87
2018-04-01T06:19:53.981Z,25.98
2018-04-01T06:22:21.779Z,26.38
2018-04-01T06:24:49.598Z,27.21
2018-04-01T06:27:19.267Z,26.81
2018-04-01T06:29:48.147Z,26.54
2018-04-01T06:32:15.984Z,26.63
2018-04-01T06:34:43.793Z,26.06
2018-04-01T06:37:11.702Z,25.99
2018-04-01T06:39:40.543Z,25.11
2018-04-01T06:42:09.144Z,26.43
2018-04-01T06:44:37.068Z,24.97
2018-04-01T06:47:04.843Z,25.27
2018-04-01T06:49:32.707Z,24.92
2018-04-01T06:52:00.537Z,24.40
2018-04-01T06:54:28.320Z,24.81
2018-04-01T06:56:56.113Z,25.45
2018-04-01T06:59:23.986Z,25.48
2018-04-01T07:01:51.897Z,25.40
2018-04-01T07:04:19.687Z,26.11
2018-04-01T07:06:47.535Z,25.04
2018-04-01T07:09:15.326Z,25.46
2018-04-01T07:11:43.092Z,25.63
2018-04-01T07:14:10.882Z,25.73
2018-04-01T07:16:38.708Z,25.00
2018-04-01T07:19:06.542Z,25.72
2018-04-01T07:21:34.363Z,25.19
2018-04-01T07:24:02.164Z,25.39
2018-04-01T07:26:29.992Z,24.83
2018-04-01T07:28:57.741Z,25.25
2018-04-01T07:31:25.435Z,25.58
2018-04-01T07:33:53.339Z,23.24
2018-04-01T07:36:21.188Z,23.68
2018-04-01T07:38:48.990Z,24.55
2018-04-01T07:41:16.868Z,24.57
2018-04-01T07:43:45.225Z,23.73
2018-04-01T07:46:13.136Z,23.47
2018-04-01T07:48:40.868Z,24.42
2018-04-01T07:51:08.671Z,25.04
2018-04-01T07:53:36.596Z,25.69
2018-04-01T07:56:05.312Z,25.50
2018-04-01T07:58:33.331Z,25.03
2018-04-01T08:01:01.663Z,25.48
2018-04-01T08:03:29.452Z,24.93
2018-04-01T08:05:57.389Z,24.77
2018-04-01T08:08:25.277Z,25.54
2018-04-01T08:10:53.129Z,24.22
2018-04-01T08:13:20.881Z,24.39
2018-04-01T08:15:48.764Z,24.81
2018-04-01T08:18:16.487Z,25.48
2018-04-01T08:20:44.304Z,25.01
2018-04-01T08:23:12.104Z,23.88
2018-04-01T08:25:42.146Z,23.76
2018-04-01T08:28:09.966Z,23.59
2018-04-01T08:30:37.788Z,23.64
2018-04-01T08:33:05.533Z,23.23
2018-04-01T08:35:33.428Z,23.00
2018-04-01T08:38:01.249Z,23.63
2018-04-01T08:40:29.662Z,23.80
2018-04-01T08:42:58.260Z,22.47
2018-04-01T08:45:26.812Z,21.88
2018-04-01T08:47:57.130Z,21.70
2018-04-01T08:50:25.140Z,22.54
2018-04-01T08:52:53.040Z,21.89
2018-04-01T08:55:20.802Z,22.70
2018-04-01T08:57:48.707Z,22.75
2018-04-01T09:00:16.582Z,22.77
2018-04-01T09:02:44.346Z,23.32
2018-04-01T09:05:12.197Z,24.00
2018-04-01T09:07:39.909Z,23.99
2018-04-01T09:10:07.702Z,24.12
2018-04-01T09:12:35.520Z,23.48
2018-04-01T09:15:03.341Z,23.70
2018-04-01T09:17:31.227Z,24.24
2018-04-01T09:19:59.741Z,23.91
2018-04-01T09:22:27.602Z,24.58
2018-04-01T09:24:55.515Z,24.11
2018-04-01T09:27:23.295Z,24.07
2018-04-01T09:29:51.157Z,23.37
2018-04-01T09:32:19.079Z,23.39
2018-04-01T09:34:46.993Z,23.76
2018-04-01T09:37:14.958Z,24.31
2018-04-01T09:39:42.934Z,24.69
2018-04-01T09:42:10.660Z,24.19
2018-04-01T09:44:38.569Z,24.44
2018-04-01T09:47:06.492Z,24.49
2018-04-01T09:49:34.374Z,22.10
2018-04-01T09:52:02.227Z,20.75
2018-04-01T09:54:29.975Z,20.81
2018-04-01T09:56:57.778Z,20.81
2018-04-01T09:59:25.682Z,20.53
2018-04-01T10:01:54.103Z,22.09
2018-04-01T10:04:22.439Z,22.94
2018-04-01T10:06:50.863Z,23.43
2018-04-01T10:09:19.565Z,24.25
2018-04-01T10:11:48.251Z,23.73
2018-04-01T10:14:17.010Z,22.05
2018-04-01T10:16:45.831Z,22.92
2018-04-01T10:19:14.552Z,24.40
2018-04-01T10:21:43.277Z,24.86
2018-04-01T10:24:11.996Z,24.14
2018-04-01T10:26:40.690Z,23.65
2018-04-01T10:29:09.393Z,22.47
2018-04-01T10:31:38.772Z,21.71
2018-04-01T10:34:07.387Z,20.40
2018-04-01T10:36:36.010Z,19.88
2018-04-01T10:39:04.731Z,20.75
2018-04-01T10:41:33.452Z,20.59
2018-04-01T10:44:02.174Z,19.91
2018-04-01T10:46:30.794Z,20.01
2018-04-01T10:48:59.433Z,22.01
2018-04-01T10:51:28.038Z,22.52
2018-04-01T10:53:56.967Z,21.75
2018-04-01T10:56:25.189Z,20.96
2018-04-01T10:58:53.071Z,20.00
2018-04-01T11:01:21.124Z,20.82
2018-04-01T11:03:48.852Z,20.00
2018-04-01T11:06:16.572Z,20.35
2018-04-01T11:08:44.375Z,20.36
2018-04-01T11:11:12.100Z,20.21
2018-04-01T11:13:39.912Z,19.43
2018-04-01T11:16:07.857Z,19.04
2018-04-01T11:18:35.750Z,18.86
2018-04-01T11:21:03.546Z,18.53
2018-04-01T11:23:31.296Z,18.60
2018-04-01T11:25:59.251Z,18.82
2018-04-01T11:28:27.126Z,19.00
2018-04-01T11:30:54.960Z,18.94
2018-04-01T11:33:22.862Z,19.47
2018-04-01T11:35:50.785Z,19.24
2018-04-01T11:38:18.508Z,19.13
2018-04-01T11:40:46.320Z,19.10
2018-04-01T11:43:15.054Z,19.03
2018-04-01T11:45:42.758Z,18.91
2018-04-01T11:48:11.083Z,19.13
2018-04-01T11:50:38.975Z,20.42
2018-04-01T11:53:06.868Z,20.22
2018-04-01T11:55:34.738Z,20.94
2018-04-01T11:58:03.364Z,21.43
2018-04-01T12:00:31.175Z,21.63
2018-04-01T12:02:59.027Z,21.19
2018-04-01T12:05:26.914Z,20.51
2018-04-01T12:07:54.739Z,19.88
2018-04-01T12:10:22.451Z,19.71
2018-04-01T12:12:50.369Z,19.41
2018-04-01T12:15:18.893Z,19.50
2018-04-01T12:17:46.615Z,19.56
2018-04-01T12:20:14.429Z,19.46
2018-04-01T12:22:42.157Z,19.15
2018-04-01T12:25:10.070Z,19.50
2018-04-01T12:27:37.953Z,19.36
2018-04-01T12:30:05.809Z,19.79
2018-04-01T12:32:33.687Z,20.06
2018-04-01T12:35:01.412Z,19.89
2018-04-01T12:37:29.259Z,19.71
2018-04-01T12:39:57.382Z,20.13
2018-04-01T12:42:25.732Z,20.01
2018-04-01T12:44:53.474Z,20.47
2018-04-01T12:47:21.284Z,20.90
2018-04-01T12:49:49.258Z,20.77
2018-04-01T12:52:16.997Z,20.41
2018-04-01T12:54:44.693Z,20.51
2018-04-01T12:57:12.612Z,20.00
2018-04-01T12:59:40.533Z,20.37
2018-04-01T13:02:08.350Z,19.76
2018-04-01T13:04:36.772Z,19.74
2018-04-01T13:07:04.590Z,19.61
2018-04-01T13:09:32.512Z,19.28
2018-04-01T13:12:00.328Z,19.53
2018-04-01T13:14:28.247Z,19.68
2018-04-01T13:16:56.167Z,19.28
2018-04-01T13:19:23.926Z,19.08
2018-04-01T13:21:51.919Z,19.12
2018-04-01T13:24:19.724Z,19.25
2018-04-01T13:26:47.546Z,19.07
2018-04-01T13:29:15.361Z,19.07
2018-04-01T13:31:43.178Z,19.07
2018-04-01T13:34:11.002Z,18.90
2018-04-01T13:36:38.716Z,18.94
2018-04-01T13:39:06.638Z,18.94
2018-04-01T13:41:34.556Z,18.83
2018-04-01T13:44:02.375Z,18.52
2018-04-01T13:46:30.267Z,18.76
2018-04-01T13:48:58.027Z,18.75
2018-04-01T13:51:25.899Z,18.96
2018-04-01T13:53:54.150Z,19.04
2018-04-01T13:56:22.071Z,18.89
2018-04-01T13:58:49.992Z,18.88
2018-04-01T14:01:17.806Z,18.65
2018-04-01T14:03:45.728Z,18.82
2018-04-01T14:06:13.527Z,18.74
2018-04-01T14:08:41.363Z,18.68
2018-04-01T14:11:09.190Z,18.35
2018-04-01T14:13:36.905Z,18.23
2018-04-01T14:16:04.723Z,18.11
2018-04-01T14:18:32.517Z,18.13
2018-04-01T14:21:00.364Z,18.10
2018-04-01T14:23:28.176Z,18.02
2018-04-01T14:25:55.906Z,18.16
2018-04-01T14:28:23.819Z,18.27
2018-04-01T14:30:51.641Z,18.26
2018-04-01T14:33:19.554Z,18.07
2018-04-01T14:35:47.369Z,18.20
2018-04-01T14:38:15.187Z,18.19
2018-04-01T14:40:43.108Z,17.96
2018-04-01T14:43:11.656Z,17.89
2018-04-01T14:45:39.462Z,17.93
2018-04-01T14:48:07.292Z,17.63
2018-04-01T14:50:35.086Z,17.46
2018-04-01T14:53:02.828Z,17.30
2018-04-01T14:55:30.587Z,17.16
2018-04-01T14:57:58.356Z,16.80
2018-04-01T15:00:26.157Z,16.57
2018-04-01T15:02:53.885Z,16.43
2018-04-01T15:05:22.702Z,16.31
2018-04-01T15:07:50.622Z,16.18
2018-04-01T15:10:19.513Z,16.28
2018-04-01T15:12:48.162Z,16.20
2018-04-01T15:15:16.871Z,16.30
2018-04-01T15:17:44.612Z,16.49
2018-04-01T15:20:12.324Z,16.29
2018-04-01T15:22:40.122Z,16.16
2018-04-01T15:25:07.963Z,16.04
2018-04-01T15:27:35.684Z,15.98
2018-04-01T15:30:03.514Z,15.99
2018-04-01T15:32:31.215Z,15.94
2018-04-01T15:34:58.985Z,15.98
2018-04-01T15:37:26.766Z,16.01
2018-04-01T15:39:54.648Z,15.98
2018-04-01T15:42:23.357Z,15.91
2018-04-01T15:44:51.097Z,15.84
2018-04-01T15:47:18.785Z,15.76
2018-04-01T15:49:46.466Z,15.72
2018-04-01T15:52:14.213Z,15.67
2018-04-01T15:54:41.914Z,15.60
2018-04-01T15:57:09.642Z,15.55
2018-04-01T15:59:37.421Z,15.54
2018-04-01T16:02:06.244Z,15.43
2018-04-01T16:04:34.262Z,15.45
2018-04-01T16:07:01.995Z,15.40
2018-04-01T16:09:29.800Z,15.33
2018-04-01T16:11:57.528Z,15.29
2018-04-01T16:14:25.335Z,15.28
2018-04-01T16:16:53.256Z,15.19
2018-04-01T16:19:21.086Z,15.03
2018-04-01T16:21:48.777Z,14.98
2018-04-01T16:24:16.611Z,14.92
2018-04-01T16:26:44.458Z,14.93
2018-04-01T16:29:12.184Z,14.91
2018-04-01T16:31:40.067Z,14.85
2018-04-01T16:34:07.811Z,14.77
2018-04-01T16:36:35.623Z,14.75
2018-04-01T16:39:04.291Z,14.70
2018-04-01T16:41:32.013Z,14.62
2018-04-01T16:43:59.863Z,14.52
2018-04-01T16:46:27.585Z,14.41
2018-04-01T16:48:55.313Z,14.43
2018-04-01T16:51:23.180Z,14.37
2018-04-01T16:53:51.040Z,14.37
2018-04-01T16:56:18.759Z,14.29
2018-04-01T16:58:46.574Z,14.24
2018-04-01T17:01:14.498Z,14.17
2018-04-01T17:03:42.171Z,14.16
2018-04-01T17:06:09.953Z,14.18
2018-04-01T17:08:37.749Z,14.18
2018-04-01T17:11:05.590Z,14.26
2018-04-01T17:13:33.486Z,14.35
2018-04-01T17:16:01.311Z,14.31
2018-04-01T17:18:29.326Z,14.20
2018-04-01T17:20:57.048Z,14.20
2018-04-01T17:23:24.736Z,14.21
2018-04-01T17:25:52.589Z,14.24
2018-04-01T17:28:20.399Z,14.23
2018-04-01T17:30:48.196Z,14.22
2018-04-01T17:33:15.937Z,14.12
2018-04-01T17:35:43.755Z,14.23
2018-04-01T17:38:11.603Z,14.27
2018-04-01T17:40:39.405Z,14.29
2018-04-01T17:43:07.115Z,14.28
2018-04-01T17:45:35.040Z,14.16
2018-04-01T17:48:02.911Z,14.30
2018-04-01T17:50:30.620Z,14.21
2018-04-01T17:52:58.468Z,14.20
2018-04-01T17:55:26.262Z,14.25
2018-04-01T17:57:54.016Z,14.26
2018-04-01T18:00:21.949Z,14.31
2018-04-01T18:02:49.761Z,14.28
2018-04-01T18:05:17.813Z,14.31
2018-04-01T18:07:45.801Z,14.30
2018-04-01T18:10:13.539Z,14.39
2018-04-01T18:12:41.226Z,14.28
2018-04-01T18:15:08.978Z,14.17
2018-04-01T18:17:36.712Z,14.20
2018-04-01T18:20:04.419Z,14.18
2018-04-01T18:22:32.214Z,14.16
2018-04-01T18:25:00.030Z,14.06
2018-04-01T18:27:27.849Z,14.00
2018-04-01T18:29:55.586Z,13.99
2018-04-01T18:32:24.189Z,13.93
2018-04-01T18:34:52.108Z,13.78
2018-04-01T18:37:19.833Z,13.66
2018-04-01T18:39:47.499Z,13.56
2018-04-01T18:42:15.268Z,13.54
2018-04-01T18:44:43.786Z,13.40
2018-04-01T18:47:11.714Z,13.21
2018-04-01T18:49:39.480Z,12.79
2018-04-01T18:52:07.341Z,12.56
2018-04-01T18:54:35.159Z,12.25
2018-04-01T18:57:03.080Z,12.00
2018-04-01T18:59:31.197Z,11.90
2018-04-01T19:01:59.024Z,11.90
2018-04-01T19:04:26.772Z,11.90
2018-04-01T19:06:54.461Z,11.86
2018-04-01T19:09:22.172Z,11.79
2018-04-01T19:11:49.912Z,11.78
2018-04-01T19:14:17.634Z,11.74
2018-04-01T19:17:03.610Z,11.76
2018-04-01T19:19:31.899Z,11.91
2018-04-01T19:22:00.502Z,11.86
2018-04-01T19:24:29.254Z,11.76
2018-04-01T19:26:57.953Z,11.62
2018-04-01T19:29:26.700Z,11.50
2018-04-01T19:31:55.283Z,11.41
2018-04-01T19:34:23.917Z,11.39
2018-04-01T19:36:52.666Z,11.27
2018-04-01T19:39:21.300Z,11.06
2018-04-01T19:41:50.009Z,11.08
2018-04-01T19:44:18.728Z,11.09
2018-04-01T19:46:47.450Z,11.04
2018-04-01T19:49:16.761Z,11.10
2018-04-01T19:51:45.603Z,11.03
2018-04-01T19:54:14.223Z,11.21
2018-04-01T19:56:42.940Z,11.28
2018-04-01T19:59:11.605Z,11.26
2018-04-01T20:01:40.391Z,11.33
2018-04-01T20:04:09.107Z,11.14
2018-04-01T20:06:37.931Z,11.17
2018-04-01T20:09:06.661Z,11.24
2018-04-01T20:11:35.382Z,11.27
2018-04-01T20:14:04.720Z,11.42
2018-04-01T20:16:33.418Z,11.23
2018-04-01T20:19:02.440Z,11.18
2018-04-01T20:21:31.062Z,11.27
2018-04-01T20:23:59.786Z,11.36
2018-04-01T20:26:28.455Z,11.27
2018-04-01T20:28:57.665Z,11.33
2018-04-01T20:31:26.451Z,11.31
2018-04-01T20:33:55.173Z,11.34
2018-04-01T20:36:23.897Z,11.43
2018-04-01T20:38:52.517Z,11.38
2018-04-01T20:41:21.093Z,11.43
2018-04-01T20:43:49.862Z,11.47
2018-04-01T20:46:19.115Z,11.55
2018-04-01T20:48:47.878Z,11.50
2018-04-01T20:51:16.541Z,11.61
2018-04-01T20:53:46.183Z,11.51
2018-04-01T20:56:15.703Z,11.52
2018-04-01T20:58:44.610Z,11.57
2018-04-01T21:01:13.522Z,11.57
2018-04-01T21:03:42.128Z,11.57
2018-04-01T21:06:10.881Z,11.56
2018-04-01T21:08:39.428Z,11.60
2018-04-01T21:11:08.054Z,11.52
2018-04-01T21:13:36.795Z,11.47
2018-04-01T21:16:05.338Z,11.55
2018-04-01T21:18:34.105Z,11.51
2018-04-01T21:21:03.672Z,11.45
2018-04-01T21:23:33.289Z,11.49
2018-04-01T21:26:01.891Z,11.45
2018-04-01T21:28:30.572Z,11.20
2018-04-01T21:30:59.968Z,11.32
2018-04-01T21:33:28.564Z,11.44
2018-04-01T21:35:57.205Z,11.34
2018-04-01T21:38:25.916Z,11.44
2018-04-01T21:40:55.538Z,11.45
2018-04-01T21:43:24.232Z,11.39
2018-04-01T21:45:52.987Z,11.40
2018-04-01T21:48:21.629Z,11.41
2018-04-01T21:50:50.296Z,11.34
2018-04-01T21:53:20.104Z,11.22
2018-04-01T21:55:49.348Z,11.25
2018-04-01T21:58:18.100Z,11.18
2018-04-01T22:00:46.742Z,11.03
2018-04-01T22:03:15.362Z,11.01
2018-04-01T22:05:45.279Z,10.90
2018-04-01T22:08:13.852Z,10.87
2018-04-01T22:10:42.611Z,10.91
2018-04-01T22:13:11.274Z,10.90
2018-04-01T22:15:40.053Z,10.97
2018-04-01T22:18:09.481Z,10.92
2018-04-01T22:20:38.214Z,10.62
2018-04-01T22:23:13.693Z,10.76
2018-04-01T22:25:42.671Z,10.58
2018-04-01T22:28:11.694Z,10.71
2018-04-01T22:30:41.287Z,10.72
2018-04-01T22:33:09.939Z,10.69
2018-04-01T22:35:38.701Z,10.70
2018-04-01T22:38:07.495Z,10.48
2018-04-01T22:40:36.208Z,10.50
2018-04-01T22:43:04.830Z,10.49
2018-04-01T22:45:33.551Z,10.44
2018-04-01T22:48:02.874Z,10.39
2018-04-01T22:50:31.436Z,10.19
2018-04-01T22:53:00.136Z,10.17
2018-04-01T22:55:28.803Z,9.98
2018-04-01T22:57:57.559Z,9.80
2018-04-01T23:00:26.485Z,9.80
2018-04-01T23:02:55.307Z,10.04
2018-04-01T23:05:23.995Z,10.14
2018-04-01T23:07:52.659Z,10.23
2018-04-01T23:10:21.377Z,10.21
2018-04-01T23:12:50.520Z,10.35
2018-04-01T23:15:19.124Z,10.44
2018-04-01T23:17:48.605Z,10.31
2018-04-01T23:20:17.295Z,10.33
2018-04-01T23:22:48.644Z,10.34
2018-04-01T23:25:17.413Z,10.47
2018-04-01T23:27:46.031Z,10.54
2018-04-01T23:30:15.162Z,10.56
2018-04-01T23:32:43.782Z,10.57
2018-04-01T23:35:12.401Z,10.59
2018-04-01T23:37:41.125Z,10.55
2018-04-01T23:40:09.767Z,10.55
2018-04-01T23:42:38.545Z,10.58
2018-04-01T23:45:07.162Z,10.67
2018-04-01T23:47:35.880Z,10.63
2018-04-01T23:50:04.532Z,10.61
2018-04-01T23:52:33.256Z,10.72
2018-04-01T23:55:01.929Z,10.69
2018-04-01T23:57:30.597Z,10.79
2018-04-01T23:59:59.152Z,10.73
